Time;durP1;ratioP1;P1;durP2;ratioP2;P2;SDS_P1;SDS_P2;PMS_P1;PMS_P2;Temp;Humidity;BMP_temperature;BMP_pressure;BME280_temperature;BME280_humidity;BME280_pressure;Samples;Min_cycle;Max_cycle;Signal;HPM_P1;HPM_P2
2023/06/30 00:02:06;;;;;;;20.10;17.00;;;;;;;;;;5069944;28;20732;-48
2023/06/30 00:04:33;;;;;;;20.13;16.70;;;;;;;;;;5069809;28;20243;-49
2023/06/30 00:06:59;;;;;;;17.00;15.17;;;;;;;;;;5069675;28;20210;-47
2023/06/30 00:09:25;;;;;;;17.97;15.07;;;;;;;;;;5069653;28;20728;-49
2023/06/30 00:11:53;;;;;;;17.60;14.67;;;;;;;;;;5069793;28;20212;-48
2023/06/30 00:14:19;;;;;;;17.03;13.43;;;;;;;;;;5069903;28;20207;-52
2023/06/30 00:16:45;;;;;;;15.17;12.63;;;;;;;;;;5069777;28;20198;-51
2023/06/30 00:19:11;;;;;;;15.70;12.67;;;;;;;;;;5069691;28;20209;-52
2023/06/30 00:21:41;;;;;;;14.77;13.20;;;;;;;;;;5069774;28;20233;-53
2023/06/30 00:24:10;;;;;;;17.27;12.50;;;;;;;;;;5069632;28;20220;-52
2023/06/30 00:26:36;;;;;;;14.43;12.00;;;;;;;;;;5069716;28;20237;-53
2023/06/30 00:29:03;;;;;;;18.87;12.97;;;;;;;;;;5069539;28;20209;-52
2023/06/30 00:31:29;;;;;;;17.23;12.73;;;;;;;;;;5069639;28;20241;-52
2023/06/30 00:33:55;;;;;;;14.20;12.57;;;;;;;;;;5069736;28;20195;-51
2023/06/30 00:36:22;;;;;;;13.70;11.50;;;;;;;;;;5070654;28;20611;-52
2023/06/30 00:38:48;;;;;;;13.60;10.83;;;;;;;;;;5073222;28;20249;-53
2023/06/30 00:41:14;;;;;;;12.60;10.37;;;;;;;;;;5073003;28;20186;-53
2023/06/30 00:43:42;;;;;;;10.40;8.93;;;;;;;;;;5073159;28;20209;-53
2023/06/30 00:46:10;;;;;;;9.67;8.63;;;;;;;;;;5073267;28;20199;-53
2023/06/30 00:48:36;;;;;;;9.03;7.70;;;;;;;;;;5072828;28;20206;-52
2023/06/30 00:51:03;;;;;;;9.73;8.47;;;;;;;;;;5072828;28;20235;-52
2023/06/30 00:53:29;;;;;;;9.70;8.03;;;;;;;;;;5072701;28;20207;-53
2023/06/30 00:55:55;;;;;;;8.50;6.67;;;;;;;;;;5072833;28;20613;-52
2023/06/30 00:58:20;;;;;;;7.53;6.23;;;;;;;;;;5072794;28;20198;-52
2023/06/30 01:00:47;;;;;;;8.70;5.37;;;;;;;;;;5072748;28;20691;-53
2023/06/30 01:03:20;;;;;;;8.10;5.50;;;;;;;;;;5072676;28;20269;-53
2023/06/30 01:05:48;;;;;;;7.67;4.80;;;;;;;;;;5072624;28;20394;-53
2023/06/30 01:08:18;;;;;;;4.40;3.90;;;;;;;;;;5072826;28;20204;-53
2023/06/30 01:10:45;;;;;;;5.10;4.07;;;;;;;;;;5072426;28;20765;-53
2023/06/30 01:13:11;;;;;;;5.20;3.70;;;;;;;;;;5072616;28;20224;-53
2023/06/30 01:15:38;;;;;;;7.60;5.00;;;;;;;;;;5072811;28;20198;-53
2023/06/30 01:18:04;;;;;;;6.37;3.70;;;;;;;;;;5071913;28;20641;-52
2023/06/30 01:20:33;;;;;;;5.63;3.40;;;;;;;;;;5071055;28;20688;-53
2023/06/30 01:23:02;;;;;;;10.93;4.27;;;;;;;;;;5072162;28;20256;-53
2023/06/30 01:25:29;;;;;;;5.57;3.90;;;;;;;;;;5071950;28;20285;-52
2023/06/30 01:27:56;;;;;;;5.43;4.60;;;;;;;;;;5071793;28;20246;-53
2023/06/30 01:30:23;;;;;;;6.73;4.10;;;;;;;;;;5071725;28;20334;-53
2023/06/30 01:32:54;;;;;;;4.97;3.83;;;;;;;;;;5071699;28;20195;-53
2023/06/30 01:35:20;;;;;;;6.77;3.87;;;;;;;;;;5071717;28;20209;-54
2023/06/30 01:37:47;;;;;;;5.60;4.33;;;;;;;;;;5071722;28;20205;-52
2023/06/30 01:40:13;;;;;;;5.40;3.67;;;;;;;;;;5071841;28;20202;-53
2023/06/30 01:42:40;;;;;;;4.47;4.07;;;;;;;;;;5071796;28;20665;-53
2023/06/30 01:45:08;;;;;;;3.60;3.13;;;;;;;;;;5071491;28;20308;-53
2023/06/30 01:47:34;;;;;;;2.93;2.63;;;;;;;;;;5071586;28;20568;-53
2023/06/30 01:50:00;;;;;;;4.27;2.43;;;;;;;;;;5071576;28;20229;-52
2023/06/30 01:52:26;;;;;;;4.10;2.43;;;;;;;;;;5071409;28;20201;-52
2023/06/30 01:54:53;;;;;;;4.07;1.90;;;;;;;;;;5071438;28;20197;-53
2023/06/30 01:57:19;;;;;;;5.17;2.30;;;;;;;;;;5071719;28;20209;-53
2023/06/30 01:59:45;;;;;;;2.13;1.70;;;;;;;;;;5071621;28;20258;-53
2023/06/30 02:02:11;;;;;;;4.17;1.97;;;;;;;;;;5071771;28;20277;-52
2023/06/30 02:04:37;;;;;;;3.00;1.80;;;;;;;;;;5071470;28;20234;-53
2023/06/30 02:07:03;;;;;;;3.70;1.80;;;;;;;;;;5071458;28;20202;-53
2023/06/30 02:09:29;;;;;;;4.03;1.87;;;;;;;;;;5071592;28;20198;-53
2023/06/30 02:11:57;;;;;;;3.07;1.70;;;;;;;;;;5071562;28;20200;-53
2023/06/30 02:14:23;;;;;;;3.97;1.90;;;;;;;;;;5071540;28;20208;-53
2023/06/30 02:16:49;;;;;;;3.13;1.80;;;;;;;;;;5071385;28;20198;-53
2023/06/30 02:19:15;;;;;;;2.13;1.53;;;;;;;;;;5071307;28;20680;-53
2023/06/30 02:21:41;;;;;;;4.67;2.10;;;;;;;;;;5071199;28;20709;-53
2023/06/30 02:24:08;;;;;;;2.77;1.57;;;;;;;;;;5071089;28;20231;-52
2023/06/30 02:26:34;;;;;;;3.20;1.63;;;;;;;;;;5071007;28;20298;-52
2023/06/30 02:29:01;;;;;;;4.80;2.30;;;;;;;;;;5071096;28;20332;-52
2023/06/30 02:31:27;;;;;;;2.70;2.00;;;;;;;;;;5071045;28;20573;-52
2023/06/30 02:33:54;;;;;;;7.27;2.30;;;;;;;;;;5071180;28;20203;-54
2023/06/30 02:36:20;;;;;;;2.73;2.03;;;;;;;;;;5071158;28;20202;-53
2023/06/30 02:38:46;;;;;;;5.50;2.23;;;;;;;;;;5070798;28;20207;-53
2023/06/30 02:41:12;;;;;;;2.97;2.00;;;;;;;;;;5070863;28;20283;-52
2023/06/30 02:43:38;;;;;;;5.03;2.30;;;;;;;;;;5071046;28;20267;-52
2023/06/30 02:46:05;;;;;;;3.40;2.40;;;;;;;;;;5070876;28;20684;-53
2023/06/30 02:48:31;;;;;;;5.57;2.30;;;;;;;;;;5070749;28;20203;-53
2023/06/30 02:50:57;;;;;;;2.30;2.10;;;;;;;;;;5070562;28;20218;-52
2023/06/30 02:53:23;;;;;;;2.90;2.40;;;;;;;;;;5070717;28;20201;-52
2023/06/30 02:55:49;;;;;;;5.07;2.30;;;;;;;;;;5070736;28;20195;-52
2023/06/30 02:58:15;;;;;;;3.73;2.23;;;;;;;;;;5070810;28;20695;-52
2023/06/30 03:00:41;;;;;;;4.20;2.50;;;;;;;;;;5070012;28;20199;-52
2023/06/30 03:03:08;;;;;;;6.70;2.70;;;;;;;;;;5070749;28;20262;-52
2023/06/30 03:05:34;;;;;;;4.23;2.53;;;;;;;;;;5070579;28;20225;-53
2023/06/30 03:08:00;;;;;;;4.73;2.50;;;;;;;;;;5070633;28;20212;-52
2023/06/30 03:10:26;;;;;;;4.27;2.23;;;;;;;;;;5070570;28;20592;-53
2023/06/30 03:12:52;;;;;;;3.77;2.10;;;;;;;;;;5070449;28;20255;-53
2023/06/30 03:15:19;;;;;;;2.83;1.93;;;;;;;;;;5070529;28;20213;-53
2023/06/30 03:17:44;;;;;;;6.23;2.60;;;;;;;;;;5070492;28;20193;-52
2023/06/30 03:20:12;;;;;;;3.77;2.40;;;;;;;;;;5070310;28;20831;-53
2023/06/30 03:22:38;;;;;;;6.63;2.67;;;;;;;;;;5070233;28;20686;-53
2023/06/30 03:25:05;;;;;;;7.20;2.50;;;;;;;;;;5070585;28;20215;-53
2023/06/30 03:27:31;;;;;;;4.20;2.63;;;;;;;;;;5070064;28;20246;-53
2023/06/30 03:29:57;;;;;;;6.60;2.50;;;;;;;;;;5069483;28;20221;-52
2023/06/30 03:32:23;;;;;;;4.47;2.57;;;;;;;;;;5070313;28;20250;-53
2023/06/30 03:34:49;;;;;;;6.40;2.47;;;;;;;;;;5070041;28;20193;-53
2023/06/30 03:37:17;;;;;;;6.23;3.50;;;;;;;;;;5069915;28;20658;-54
2023/06/30 03:39:43;;;;;;;5.23;3.80;;;;;;;;;;5070158;28;20205;-53
2023/06/30 03:42:09;;;;;;;4.47;3.60;;;;;;;;;;5070067;28;20676;-54
2023/06/30 03:44:35;;;;;;;4.47;3.50;;;;;;;;;;5070291;28;20227;-53
2023/06/30 03:47:01;;;;;;;5.63;4.10;;;;;;;;;;5069903;28;20208;-53
2023/06/30 03:49:27;;;;;;;7.73;4.43;;;;;;;;;;5070045;28;20200;-53
2023/06/30 03:51:53;;;;;;;4.33;3.93;;;;;;;;;;5069952;28;20263;-53
2023/06/30 03:54:20;;;;;;;3.47;3.17;;;;;;;;;;5070107;28;20204;-52
2023/06/30 03:56:47;;;;;;;5.27;3.53;;;;;;;;;;5069996;28;20211;-53
2023/06/30 03:59:13;;;;;;;5.17;3.77;;;;;;;;;;5069684;28;20253;-53
2023/06/30 04:01:40;;;;;;;7.73;3.63;;;;;;;;;;5069920;28;20663;-52
2023/06/30 04:04:06;;;;;;;4.63;3.60;;;;;;;;;;5070081;28;20608;-53
2023/06/30 04:06:33;;;;;;;4.43;3.93;;;;;;;;;;5069886;28;20302;-53
2023/06/30 04:08:59;;;;;;;7.70;3.70;;;;;;;;;;5069929;28;20204;-52
2023/06/30 04:11:26;;;;;;;5.07;3.50;;;;;;;;;;5071120;28;20232;-53
2023/06/30 04:13:52;;;;;;;5.60;3.33;;;;;;;;;;5073562;28;20211;-52
2023/06/30 04:16:18;;;;;;;5.33;4.07;;;;;;;;;;5073658;28;20203;-53
2023/06/30 04:18:44;;;;;;;4.83;3.80;;;;;;;;;;5073674;28;20652;-53
2023/06/30 04:21:10;;;;;;;6.13;3.47;;;;;;;;;;5073415;28;20232;-52
2023/06/30 04:23:36;;;;;;;6.00;3.40;;;;;;;;;;5073525;28;20204;-52
2023/06/30 04:26:04;;;;;;;7.23;3.57;;;;;;;;;;5073161;28;20273;-52
2023/06/30 04:28:31;;;;;;;5.70;3.77;;;;;;;;;;5073338;28;20666;-54
2023/06/30 04:31:00;;;;;;;6.87;5.13;;;;;;;;;;5073130;28;20782;-54
2023/06/30 04:33:26;;;;;;;6.40;4.60;;;;;;;;;;5073453;28;20227;-54
2023/06/30 04:35:52;;;;;;;7.23;5.90;;;;;;;;;;5073097;28;20200;-54
2023/06/30 04:38:20;;;;;;;7.27;5.93;;;;;;;;;;5073235;28;20682;-52
2023/06/30 04:40:46;;;;;;;9.47;6.17;;;;;;;;;;5073247;28;20261;-52
2023/06/30 04:43:12;;;;;;;7.80;6.67;;;;;;;;;;5073017;28;20195;-52
2023/06/30 04:45:40;;;;;;;10.40;6.83;;;;;;;;;;5073273;28;20191;-53
2023/06/30 04:48:07;;;;;;;8.23;7.43;;;;;;;;;;5073048;28;20678;-53
2023/06/30 04:50:33;;;;;;;10.83;9.20;;;;;;;;;;5072776;28;20702;-53
2023/06/30 04:52:59;;;;;;;11.33;8.27;;;;;;;;;;5072917;28;20199;-50
2023/06/30 04:55:25;;;;;;;11.13;8.40;;;;;;;;;;5073219;28;20261;-51
2023/06/30 04:57:53;;;;;;;8.60;7.50;;;;;;;;;;5073018;28;20239;-51
2023/06/30 05:00:19;;;;;;;10.40;8.53;;;;;;;;;;5072874;28;20257;-50
2023/06/30 05:02:47;;;;;;;10.30;8.37;;;;;;;;;;5072701;28;20266;-51
2023/06/30 05:05:13;;;;;;;9.67;8.13;;;;;;;;;;5072647;28;20252;-51
2023/06/30 05:07:39;;;;;;;7.80;7.10;;;;;;;;;;5072548;28;20221;-50
2023/06/30 05:10:05;;;;;;;10.90;8.37;;;;;;;;;;5072347;28;20622;-52
2023/06/30 05:12:31;;;;;;;10.83;8.63;;;;;;;;;;5072265;28;20352;-51
2023/06/30 05:14:57;;;;;;;8.90;7.90;;;;;;;;;;5072161;28;20355;-51
2023/06/30 05:17:23;;;;;;;8.73;7.93;;;;;;;;;;5072237;28;20195;-53
2023/06/30 05:19:51;;;;;;;8.83;7.93;;;;;;;;;;5071954;28;20634;-51
2023/06/30 05:22:17;;;;;;;9.90;8.53;;;;;;;;;;5071510;28;20200;-49
2023/06/30 05:24:43;;;;;;;9.40;8.17;;;;;;;;;;5072100;28;20215;-50
2023/06/30 05:27:09;;;;;;;9.77;8.73;;;;;;;;;;5071943;28;20333;-50
2023/06/30 05:29:35;;;;;;;11.47;10.30;;;;;;;;;;5071988;28;20191;-49
2023/06/30 05:32:01;;;;;;;12.67;10.37;;;;;;;;;;5071796;28;20636;-52
2023/06/30 05:34:28;;;;;;;10.60;9.60;;;;;;;;;;5071810;28;20207;-49
2023/06/30 05:36:56;;;;;;;10.30;9.43;;;;;;;;;;5071492;28;20794;-51
2023/06/30 05:39:22;;;;;;;11.23;9.03;;;;;;;;;;5071903;28;20205;-52
2023/06/30 05:41:48;;;;;;;9.17;8.20;;;;;;;;;;5071874;28;20582;-51
2023/06/30 05:44:14;;;;;;;10.60;9.67;;;;;;;;;;5071736;28;20197;-50
2023/06/30 05:46:40;;;;;;;9.60;8.63;;;;;;;;;;5071665;28;20200;-51
2023/06/30 05:49:06;;;;;;;9.87;7.57;;;;;;;;;;5071360;28;20319;-49
2023/06/30 05:51:33;;;;;;;9.93;8.93;;;;;;;;;;5071502;28;20220;-50
2023/06/30 05:54:01;;;;;;;10.10;9.03;;;;;;;;;;5071454;28;20697;-51
2023/06/30 05:56:27;;;;;;;9.40;8.40;;;;;;;;;;5071350;28;20203;-53
2023/06/30 05:58:53;;;;;;;9.10;8.27;;;;;;;;;;5071522;28;20199;-52
2023/06/30 06:01:20;;;;;;;10.57;9.57;;;;;;;;;;5071626;28;20743;-50
2023/06/30 06:03:46;;;;;;;9.13;8.33;;;;;;;;;;5071237;28;20210;-52
2023/06/30 06:06:12;;;;;;;8.73;7.70;;;;;;;;;;5071261;28;20220;-51
2023/06/30 06:08:39;;;;;;;9.83;8.83;;;;;;;;;;5071268;28;20212;-52
2023/06/30 06:11:07;;;;;;;9.20;8.10;;;;;;;;;;5070941;28;20248;-52
2023/06/30 06:13:33;;;;;;;10.37;9.03;;;;;;;;;;5071294;28;20274;-53
2023/06/30 06:15:59;;;;;;;9.93;8.13;;;;;;;;;;5070847;28;20208;-52
2023/06/30 06:18:25;;;;;;;12.23;9.17;;;;;;;;;;5070988;28;20197;-52
2023/06/30 06:20:51;;;;;;;11.10;9.07;;;;;;;;;;5070754;28;20205;-52
2023/06/30 06:23:17;;;;;;;9.73;8.77;;;;;;;;;;5070839;28;20192;-52
2023/06/30 06:25:43;;;;;;;10.07;8.83;;;;;;;;;;5070626;28;20673;-52
2023/06/30 06:28:10;;;;;;;9.50;8.47;;;;;;;;;;5070949;28;20198;-52
2023/06/30 06:30:36;;;;;;;11.83;10.00;;;;;;;;;;5070461;28;20604;-54
2023/06/30 06:33:02;;;;;;;9.30;8.50;;;;;;;;;;5070565;28;20203;-53
2023/06/30 06:35:28;;;;;;;9.63;8.77;;;;;;;;;;5069959;28;20209;-52
2023/06/30 06:37:54;;;;;;;9.83;8.83;;;;;;;;;;5070555;28;20209;-50
2023/06/30 06:40:20;;;;;;;9.60;8.70;;;;;;;;;;5070960;28;20194;-51
2023/06/30 06:42:46;;;;;;;9.30;8.50;;;;;;;;;;5068777;28;20247;-50
2023/06/30 06:45:14;;;;;;;9.07;8.20;;;;;;;;;;5069561;28;20202;-50
2023/06/30 06:47:59;;;;;;;10.40;9.40;;;;;;;;;;5070117;28;20200;-52
2023/06/30 06:50:25;;;;;;;11.47;8.30;;;;;;;;;;5070027;28;20226;-51
2023/06/30 06:52:50;;;;;;;11.07;7.27;;;;;;;;;;5070289;28;20206;-52
2023/06/30 06:55:16;;;;;;;8.40;6.80;;;;;;;;;;5070214;28;20197;-53
2023/06/30 06:57:42;;;;;;;9.40;7.70;;;;;;;;;;5070058;28;20238;-52
2023/06/30 07:00:09;;;;;;;8.60;7.40;;;;;;;;;;5069848;28;20756;-52
2023/06/30 07:02:36;;;;;;;9.43;8.33;;;;;;;;;;5070292;28;20494;-52
2023/06/30 07:05:02;;;;;;;7.97;6.43;;;;;;;;;;5069873;28;20550;-52
2023/06/30 07:07:28;;;;;;;7.60;6.93;;;;;;;;;;5069849;28;20743;-53
2023/06/30 07:09:54;;;;;;;10.10;7.80;;;;;;;;;;5070018;28;20208;-52
2023/06/30 07:12:20;;;;;;;8.90;7.10;;;;;;;;;;5069825;28;20211;-51
2023/06/30 07:14:46;;;;;;;8.20;6.47;;;;;;;;;;5070077;28;20198;-52
2023/06/30 07:17:12;;;;;;;6.53;5.70;;;;;;;;;;5069880;28;20556;-52
2023/06/30 07:19:39;;;;;;;7.27;6.53;;;;;;;;;;5069354;28;20207;-53
2023/06/30 07:22:05;;;;;;;10.20;6.50;;;;;;;;;;5069858;28;20201;-51
2023/06/30 07:24:31;;;;;;;7.17;6.47;;;;;;;;;;5069704;28;20546;-52
2023/06/30 07:26:58;;;;;;;6.87;6.17;;;;;;;;;;5069489;28;20245;-52
2023/06/30 07:29:24;;;;;;;9.80;7.43;;;;;;;;;;5069744;28;20704;-53
2023/06/30 07:31:50;;;;;;;8.37;5.83;;;;;;;;;;5069590;28;20324;-52
2023/06/30 07:34:19;;;;;;;6.00;5.40;;;;;;;;;;5069420;28;20210;-53
2023/06/30 07:36:46;;;;;;;8.17;5.93;;;;;;;;;;5069638;28;20275;-53
2023/06/30 07:39:12;;;;;;;8.53;6.00;;;;;;;;;;5069422;28;20282;-52
2023/06/30 07:41:38;;;;;;;9.97;6.00;;;;;;;;;;5069817;28;20620;-53
2023/06/30 07:44:04;;;;;;;7.77;5.83;;;;;;;;;;5069388;28;20231;-57
2023/06/30 07:46:31;;;;;;;5.93;5.37;;;;;;;;;;5072775;28;20256;-52
2023/06/30 07:48:57;;;;;;;7.73;6.37;;;;;;;;;;5073655;28;20225;-51
2023/06/30 07:51:23;;;;;;;7.47;5.50;;;;;;;;;;5073673;28;20232;-52
2023/06/30 07:53:50;;;;;;;6.80;6.10;;;;;;;;;;5073505;28;20202;-52
2023/06/30 07:56:16;;;;;;;9.73;6.00;;;;;;;;;;5073497;28;20275;-52
2023/06/30 07:58:42;;;;;;;5.90;5.03;;;;;;;;;;5073622;28;20649;-53
2023/06/30 08:01:09;;;;;;;6.07;4.93;;;;;;;;;;5073219;28;20248;-51
2023/06/30 08:03:34;;;;;;;5.60;5.00;;;;;;;;;;5073607;28;20707;-51
2023/06/30 08:06:01;;;;;;;5.37;4.87;;;;;;;;;;5073046;28;20302;-51
2023/06/30 08:08:27;;;;;;;8.27;5.70;;;;;;;;;;5073383;28;20420;-52
2023/06/30 08:10:54;;;;;;;9.07;5.83;;;;;;;;;;5073199;28;20310;-52
2023/06/30 08:13:20;;;;;;;6.73;5.00;;;;;;;;;;5073156;28;20213;-53
2023/06/30 08:15:46;;;;;;;5.00;4.37;;;;;;;;;;5073243;28;20203;-51
2023/06/30 08:18:12;;;;;;;5.33;4.47;;;;;;;;;;5072924;28;20211;-53
2023/06/30 08:20:38;;;;;;;5.50;4.10;;;;;;;;;;5072968;28;20195;-53
2023/06/30 08:23:04;;;;;;;8.50;4.83;;;;;;;;;;5072812;28;20262;-51
2023/06/30 08:25:30;;;;;;;4.80;4.30;;;;;;;;;;5073048;28;20305;-52
2023/06/30 08:27:57;;;;;;;5.13;4.60;;;;;;;;;;5072796;28;20239;-51
2023/06/30 08:30:23;;;;;;;5.33;4.00;;;;;;;;;;5072799;28;20219;-52
2023/06/30 08:32:49;;;;;;;6.40;4.37;;;;;;;;;;5072787;28;20558;-51
2023/06/30 08:35:16;;;;;;;7.47;3.63;;;;;;;;;;5072872;28;20197;-51
2023/06/30 08:37:42;;;;;;;6.53;3.60;;;;;;;;;;5072745;28;20204;-52
2023/06/30 08:40:09;;;;;;;6.27;3.30;;;;;;;;;;5072548;28;20194;-51
2023/06/30 08:42:36;;;;;;;3.60;3.13;;;;;;;;;;5072496;28;20762;-52
2023/06/30 08:45:04;;;;;;;5.73;3.57;;;;;;;;;;5072522;28;20199;-51
2023/06/30 08:47:32;;;;;;;3.47;2.50;;;;;;;;;;5072773;28;20265;-52
2023/06/30 08:49:58;;;;;;;6.17;3.00;;;;;;;;;;5072244;28;20199;-52
2023/06/30 08:52:25;;;;;;;4.10;2.53;;;;;;;;;;5072191;28;20223;-51
2023/06/30 08:54:51;;;;;;;4.47;2.43;;;;;;;;;;5072459;28;20195;-51
2023/06/30 08:57:17;;;;;;;2.73;2.30;;;;;;;;;;5071573;28;20221;-52
2023/06/30 08:59:44;;;;;;;5.63;3.03;;;;;;;;;;5072622;28;20244;-52
2023/06/30 09:02:11;;;;;;;5.17;2.60;;;;;;;;;;5072464;28;20268;-52
2023/06/30 09:04:38;;;;;;;3.03;2.60;;;;;;;;;;5072342;28;20571;-52
2023/06/30 09:07:06;;;;;;;6.17;2.77;;;;;;;;;;5072121;28;20200;-51
2023/06/30 09:09:36;;;;;;;4.37;2.67;;;;;;;;;;5071961;28;20581;-52
2023/06/30 09:12:02;;;;;;;6.07;3.03;;;;;;;;;;5072304;28;20232;-51
2023/06/30 09:14:33;;;;;;;2.77;2.47;;;;;;;;;;5072489;28;20720;-51
2023/06/30 09:17:00;;;;;;;4.17;2.77;;;;;;;;;;5072321;28;20231;-51
2023/06/30 09:19:27;;;;;;;4.43;2.90;;;;;;;;;;5072433;28;20670;-51
2023/06/30 09:21:53;;;;;;;4.07;2.57;;;;;;;;;;5072397;28;20198;-52
2023/06/30 09:24:19;;;;;;;3.27;2.43;;;;;;;;;;5072302;28;20657;-51
2023/06/30 09:26:45;;;;;;;5.67;3.37;;;;;;;;;;5072245;28;20227;-54
2023/06/30 09:29:12;;;;;;;4.60;2.70;;;;;;;;;;5072236;28;20199;-52
2023/06/30 09:31:39;;;;;;;4.93;2.87;;;;;;;;;;5071716;28;20254;-52
2023/06/30 09:34:09;;;;;;;5.37;2.70;;;;;;;;;;5072112;28;20188;-51
2023/06/30 09:36:37;;;;;;;4.27;2.63;;;;;;;;;;5072236;28;20221;-52
2023/06/30 09:39:06;;;;;;;5.17;2.53;;;;;;;;;;5071737;28;20290;-51
2023/06/30 09:41:32;;;;;;;3.30;2.27;;;;;;;;;;5072080;28;20196;-51
2023/06/30 09:43:59;;;;;;;3.80;2.50;;;;;;;;;;5071993;28;20261;-51
2023/06/30 09:46:25;;;;;;;5.03;2.83;;;;;;;;;;5071960;28;20203;-51
2023/06/30 09:48:54;;;;;;;3.57;2.37;;;;;;;;;;5071860;28;20188;-51
2023/06/30 09:51:20;;;;;;;4.83;2.63;;;;;;;;;;5071538;28;20598;-52
2023/06/30 09:53:51;;;;;;;3.10;2.50;;;;;;;;;;5071665;28;20559;-52
2023/06/30 09:56:19;;;;;;;9.60;2.50;;;;;;;;;;5071840;28;20575;-51
2023/06/30 09:58:46;;;;;;;3.03;2.43;;;;;;;;;;5071881;28;20199;-53
2023/06/30 10:01:11;;;;;;;5.60;2.37;;;;;;;;;;5071576;28;20195;-51
2023/06/30 10:03:46;;;;;;;4.40;2.73;;;;;;;;;;5071583;28;20239;-53
2023/06/30 10:06:12;;;;;;;4.60;2.60;;;;;;;;;;5071429;28;20228;-52
2023/06/30 10:08:38;;;;;;;5.90;2.40;;;;;;;;;;5070455;28;20223;-53
2023/06/30 10:11:06;;;;;;;4.43;2.23;;;;;;;;;;5071213;28;20223;-52
2023/06/30 10:13:32;;;;;;;3.43;2.27;;;;;;;;;;5071500;28;20196;-53
2023/06/30 10:15:58;;;;;;;4.17;2.50;;;;;;;;;;5071445;28;20196;-52
2023/06/30 10:18:25;;;;;;;3.53;2.30;;;;;;;;;;5071142;28;20200;-52
2023/06/30 10:20:51;;;;;;;4.60;2.30;;;;;;;;;;5071328;28;20241;-52
2023/06/30 10:23:19;;;;;;;4.20;2.20;;;;;;;;;;5070982;28;20204;-53
2023/06/30 10:25:45;;;;;;;1.93;1.63;;;;;;;;;;5071048;28;20200;-52
2023/06/30 10:28:14;;;;;;;2.93;1.80;;;;;;;;;;5071039;28;20554;-51
2023/06/30 10:30:40;;;;;;;6.07;2.00;;;;;;;;;;5070971;28;20228;-52
2023/06/30 10:33:06;;;;;;;3.33;1.53;;;;;;;;;;5070936;28;20216;-53
2023/06/30 10:35:32;;;;;;;2.90;1.60;;;;;;;;;;5070978;28;20251;-51
2023/06/30 10:37:58;;;;;;;2.03;1.57;;;;;;;;;;5070779;28;20601;-51
2023/06/30 10:40:25;;;;;;;2.80;1.53;;;;;;;;;;5070898;28;20227;-52
2023/06/30 10:42:52;;;;;;;4.50;1.53;;;;;;;;;;5070896;28;20217;-52
2023/06/30 10:45:22;;;;;;;3.07;1.60;;;;;;;;;;5071048;28;20213;-52
2023/06/30 10:47:50;;;;;;;2.37;1.67;;;;;;;;;;5070725;28;20198;-51
2023/06/30 10:50:16;;;;;;;2.10;1.40;;;;;;;;;;5070319;28;20205;-52
2023/06/30 10:52:49;;;;;;;3.27;1.60;;;;;;;;;;5070785;28;20189;-52
2023/06/30 10:55:15;;;;;;;3.23;1.60;;;;;;;;;;5070446;28;20547;-51
2023/06/30 10:57:41;;;;;;;2.97;1.70;;;;;;;;;;5070566;28;20201;-52
2023/06/30 11:00:12;;;;;;;4.80;1.80;;;;;;;;;;5070458;28;20680;-51
2023/06/30 11:02:47;;;;;;;5.87;1.80;;;;;;;;;;5070670;28;20702;-51
2023/06/30 11:05:20;;;;;;;3.37;1.80;;;;;;;;;;5070441;28;20221;-50
2023/06/30 11:07:47;;;;;;;4.83;1.77;;;;;;;;;;5070642;28;20603;-52
2023/06/30 11:10:13;;;;;;;4.93;1.60;;;;;;;;;;5070380;28;20559;-51
2023/06/30 11:12:52;;;;;;;4.23;1.70;;;;;;;;;;5070403;28;20217;-52
2023/06/30 11:15:26;;;;;;;4.00;1.40;;;;;;;;;;5070230;28;20201;-51
2023/06/30 11:17:59;;;;;;;3.80;1.50;;;;;;;;;;5070339;28;20572;-52
2023/06/30 11:20:29;;;;;;;3.20;1.43;;;;;;;;;;5069882;28;20210;-54
2023/06/30 11:22:57;;;;;;;2.33;1.70;;;;;;;;;;5070165;28;20238;-54
2023/06/30 11:25:23;;;;;;;2.10;1.43;;;;;;;;;;5070309;28;20300;-54
2023/06/30 11:27:49;;;;;;;3.87;1.50;;;;;;;;;;5069976;28;20271;-51
2023/06/30 11:30:18;;;;;;;3.97;1.50;;;;;;;;;;5069968;28;20338;-54
2023/06/30 11:32:46;;;;;;;2.97;1.33;;;;;;;;;;5070164;28;20195;-53
2023/06/30 11:35:13;;;;;;;2.17;1.30;;;;;;;;;;5070349;28;20196;-53
2023/06/30 11:37:39;;;;;;;3.20;1.40;;;;;;;;;;5070124;28;20204;-53
2023/06/30 11:40:06;;;;;;;2.27;1.30;;;;;;;;;;5070273;28;20612;-53
2023/06/30 11:42:35;;;;;;;2.53;1.50;;;;;;;;;;5069980;28;20194;-53
2023/06/30 11:45:01;;;;;;;1.83;1.20;;;;;;;;;;5069983;28;20206;-54
2023/06/30 11:47:28;;;;;;;2.63;1.30;;;;;;;;;;5070031;28;20199;-52
2023/06/30 11:49:54;;;;;;;2.40;1.10;;;;;;;;;;5069841;28;20204;-52
2023/06/30 11:52:21;;;;;;;1.90;1.37;;;;;;;;;;5069742;28;20220;-53
2023/06/30 11:54:47;;;;;;;4.83;1.50;;;;;;;;;;5070099;28;20204;-52
2023/06/30 11:57:13;;;;;;;2.17;1.30;;;;;;;;;;5070122;28;20223;-52
2023/06/30 11:59:39;;;;;;;1.70;1.20;;;;;;;;;;5069681;28;20228;-50
2023/06/30 12:02:06;;;;;;;1.90;1.30;;;;;;;;;;5069896;28;20189;-49
2023/06/30 12:04:35;;;;;;;3.37;1.40;;;;;;;;;;5069942;28;20213;-50
2023/06/30 12:07:03;;;;;;;3.30;1.40;;;;;;;;;;5069763;28;20204;-50
2023/06/30 12:09:30;;;;;;;2.63;1.30;;;;;;;;;;5069668;28;20226;-51
2023/06/30 12:11:56;;;;;;;2.07;1.43;;;;;;;;;;5069764;28;20304;-49
2023/06/30 12:14:25;;;;;;;2.40;1.30;;;;;;;;;;5069592;28;20190;-50
2023/06/30 12:16:51;;;;;;;3.80;1.43;;;;;;;;;;5069775;28;20210;-49
2023/06/30 12:19:18;;;;;;;1.90;1.20;;;;;;;;;;5069744;28;20293;-49
2023/06/30 12:21:54;;;;;;;2.17;1.30;;;;;;;;;;5069442;28;20270;-51
2023/06/30 12:24:20;;;;;;;3.87;1.30;;;;;;;;;;5062317;28;20234;-50
2023/06/30 12:26:48;;;;;;;2.57;1.20;;;;;;;;;;5069317;28;20238;-51
2023/06/30 12:29:15;;;;;;;3.57;1.60;;;;;;;;;;5069343;28;20229;-50
2023/06/30 12:31:41;;;;;;;2.93;1.27;;;;;;;;;;5069012;28;20728;-50
2023/06/30 12:34:07;;;;;;;2.37;1.37;;;;;;;;;;5073011;28;20211;-52
2023/06/30 12:36:33;;;;;;;3.97;1.20;;;;;;;;;;5073226;28;20213;-51
2023/06/30 12:38:59;;;;;;;2.13;1.40;;;;;;;;;;5072778;28;20202;-50
2023/06/30 12:41:25;;;;;;;3.13;1.40;;;;;;;;;;5073100;28;20711;-49
2023/06/30 12:43:53;;;;;;;3.60;1.30;;;;;;;;;;5072814;28;20293;-52
2023/06/30 12:46:19;;;;;;;3.30;1.20;;;;;;;;;;5072965;28;20325;-51
2023/06/30 12:48:45;;;;;;;1.93;1.43;;;;;;;;;;5069058;28;20251;-53
2023/06/30 12:51:11;;;;;;;2.10;1.40;;;;;;;;;;5072807;28;20225;-52
2023/06/30 12:53:37;;;;;;;3.53;1.33;;;;;;;;;;5073109;28;20652;-52
2023/06/30 12:56:03;;;;;;;1.77;1.30;;;;;;;;;;5072840;28;20213;-53
2023/06/30 12:58:29;;;;;;;2.33;1.20;;;;;;;;;;5072686;28;20296;-52
2023/06/30 13:01:03;;;;;;;4.50;1.30;;;;;;;;;;5072761;28;20627;-53
2023/06/30 13:03:29;;;;;;;1.40;1.10;;;;;;;;;;5066090;28;20228;-51
2023/06/30 13:05:55;;;;;;;1.97;1.10;;;;;;;;;;5072232;28;20692;-54
2023/06/30 13:08:21;;;;;;;1.57;1.00;;;;;;;;;;5072577;28;20352;-51
2023/06/30 13:10:49;;;;;;;2.63;1.40;;;;;;;;;;5072066;28;20325;-50
2023/06/30 13:13:15;;;;;;;2.90;1.40;;;;;;;;;;5072398;28;20213;-50
2023/06/30 13:15:41;;;;;;;2.40;1.27;;;;;;;;;;5072506;28;20736;-50
2023/06/30 13:18:08;;;;;;;2.70;1.20;;;;;;;;;;5072567;28;20194;-49
2023/06/30 13:20:34;;;;;;;2.17;1.30;;;;;;;;;;5072508;28;20212;-49
2023/06/30 13:23:00;;;;;;;1.90;1.20;;;;;;;;;;5072449;28;20198;-49
2023/06/30 13:25:26;;;;;;;3.47;1.40;;;;;;;;;;5072282;28;20732;-50
2023/06/30 13:27:52;;;;;;;2.10;1.33;;;;;;;;;;5068186;28;20315;-49
2023/06/30 13:30:18;;;;;;;3.20;1.00;;;;;;;;;;5072543;28;20304;-48
2023/06/30 13:32:44;;;;;;;2.07;1.30;;;;;;;;;;5072050;28;20440;-50
2023/06/30 13:35:11;;;;;;;2.77;1.40;;;;;;;;;;5072285;28;20196;-50
2023/06/30 13:37:37;;;;;;;2.23;1.30;;;;;;;;;;5072438;28;20212;-51
2023/06/30 13:40:04;;;;;;;3.23;1.10;;;;;;;;;;5072134;28;20201;-51
2023/06/30 13:42:30;;;;;;;1.93;0.73;;;;;;;;;;5072283;28;20600;-51
2023/06/30 13:44:56;;;;;;;2.03;1.13;;;;;;;;;;5071688;28;20286;-50
2023/06/30 13:47:22;;;;;;;2.50;1.20;;;;;;;;;;5071737;28;20217;-50
2023/06/30 13:49:48;;;;;;;2.73;1.10;;;;;;;;;;5071680;28;20206;-51
2023/06/30 13:52:15;;;;;;;2.00;1.30;;;;;;;;;;5071778;28;20233;-50
2023/06/30 13:54:42;;;;;;;1.03;0.93;;;;;;;;;;5071873;28;20211;-51
2023/06/30 13:57:08;;;;;;;1.57;1.20;;;;;;;;;;5071566;28;20684;-50
2023/06/30 13:59:34;;;;;;;2.13;1.17;;;;;;;;;;5071648;28;20194;-50
2023/06/30 14:02:00;;;;;;;2.30;1.20;;;;;;;;;;5071559;28;20560;-51
2023/06/30 14:04:26;;;;;;;2.67;1.50;;;;;;;;;;5071253;28;20222;-51
2023/06/30 14:06:52;;;;;;;2.57;1.33;;;;;;;;;;5071456;28;20228;-50
2023/06/30 14:09:19;;;;;;;1.50;1.20;;;;;;;;;;5071397;28;20229;-50
2023/06/30 14:11:45;;;;;;;6.67;1.37;;;;;;;;;;5071391;28;20234;-50
2023/06/30 14:14:12;;;;;;;1.37;1.10;;;;;;;;;;5071511;28;20199;-51
2023/06/30 14:16:38;;;;;;;2.23;1.20;;;;;;;;;;5071088;28;20228;-53
2023/06/30 14:19:06;;;;;;;1.70;0.90;;;;;;;;;;5070826;28;20228;-50
2023/06/30 14:21:32;;;;;;;2.13;1.17;;;;;;;;;;5071044;28;20392;-49
2023/06/30 14:23:58;;;;;;;2.47;1.00;;;;;;;;;;5070851;28;20207;-50
2023/06/30 14:26:25;;;;;;;2.20;1.20;;;;;;;;;;5070731;28;20265;-51
2023/06/30 14:28:51;;;;;;;3.10;1.67;;;;;;;;;;5070909;28;20207;-49
2023/06/30 14:31:17;;;;;;;4.37;1.43;;;;;;;;;;5070707;28;20249;-49
2023/06/30 14:33:43;;;;;;;1.87;1.20;;;;;;;;;;5070633;28;20630;-49
2023/06/30 14:36:09;;;;;;;2.47;1.20;;;;;;;;;;5070868;28;20226;-49
2023/06/30 14:38:35;;;;;;;1.73;1.03;;;;;;;;;;5070682;28;20233;-52